Harrison Valley, Pennsylvania
Current Conditions -  °F | °C
As of 12:55 PM on Saturday 25 Oct 2014 (Local Time) from KN38 Reporting Station
Clear Clear  
Wind Chill: 59°   Ceiling: Unl
Heat Index: 59°   Visibility: 10mi
Dew Point: 43°   Wind: 20mph
Humidity: 55%   Direction: 240°WSW
Pressure: 29.78"   Gusts: 29mph
Location:  41.94°N, 77.65°W
Report Text: KN38 251655Z AUTO 24017G25KT 10SM CLR 15/06 A2978 RMK AO2
Loading
Personal Weather Stations






























Interactive Weather Map
Tropical Storm Tracking
New forecast layout! Learn more

10-Day Weather Forecast

Advertisements
Track Severe Weather on mobile